RJ125 EDDM-EGLL
Flight info
| Callsign | RJ125 |
|---|---|
| Flight time | 1h 25m |
| Altitude | 34000 |
| Route | GIVMI6S GIVMI Y101 INBED DCT REKDI DCT LOHRE DCT ADKUV DCT DENUT L608 LOGAN |
| Aircraft | A20N/M-SDE2E3FGHIRWXY/LB1 |
Departure
| Time | 2026-05-07 17:18 |
|---|---|
| Airport | Munich Airport (EDDM) |
Arrival
| Time | 2026-05-07 18:43 |
|---|---|
| Airport | London Heathrow Airport (EGLL) |
| Time | Latitude | Longitude | Altitude | Speed | Heading |
|---|---|---|---|---|---|
| 2026-05-07 16:31 | 48.35089 | 11.79393 | 1479 ft | 0 kts | 229° |
| 2026-05-07 16:52 | 48.35090 | 11.79394 | 1478 ft | 2 kts | 229° |
| 2026-05-07 16:52 | 48.35100 | 11.79411 | 1467 ft | 2 kts | 229° |
| 2026-05-07 16:52 | 48.35107 | 11.79430 | 1465 ft | 2 kts | 258° |
| 2026-05-07 16:53 | 48.35110 | 11.79453 | 1468 ft | 2 kts | 261° |
| 2026-05-07 16:53 | 48.35112 | 11.79475 | 1473 ft | 2 kts | 260° |
| 2026-05-07 16:53 | 48.35114 | 11.79494 | 1465 ft | 1 kts | 250° |
| 2026-05-07 16:53 | 48.35118 | 11.79505 | 1465 ft | 1 kts | 216° |
| 2026-05-07 16:54 | 48.35125 | 11.79511 | 1465 ft | 1 kts | 176° |
| 2026-05-07 16:54 | 48.35126 | 11.79511 | 1465 ft | 0 kts | 174° |
| 2026-05-07 16:56 | 48.35113 | 11.79545 | 1467 ft | 7 kts | 104° |
| 2026-05-07 16:57 | 48.35093 | 11.79641 | 1472 ft | 9 kts | 127° |
| 2026-05-07 16:57 | 48.35079 | 11.79653 | 1478 ft | 0 kts | 167° |
| 2026-05-07 16:58 | 48.35072 | 11.79655 | 1478 ft | 4 kts | 167° |
| 2026-05-07 16:58 | 48.35025 | 11.79665 | 1478 ft | 8 kts | 173° |
| 2026-05-07 16:58 | 48.34967 | 11.79674 | 1474 ft | 10 kts | 175° |
| 2026-05-07 16:59 | 48.34891 | 11.79690 | 1475 ft | 12 kts | 174° |
| 2026-05-07 16:59 | 48.34818 | 11.79710 | 1473 ft | 9 kts | 150° |
| 2026-05-07 16:59 | 48.34809 | 11.79797 | 1472 ft | 10 kts | 79° |
| 2026-05-07 16:59 | 48.34818 | 11.79910 | 1479 ft | 12 kts | 84° |
| 2026-05-07 17:00 | 48.34828 | 11.80051 | 1474 ft | 15 kts | 84° |
| 2026-05-07 17:00 | 48.34838 | 11.80178 | 1470 ft | 13 kts | 84° |
| 2026-05-07 17:00 | 48.34838 | 11.80298 | 1467 ft | 10 kts | 104° |
| 2026-05-07 17:00 | 48.34787 | 11.80379 | 1474 ft | 12 kts | 156° |
| 2026-05-07 17:01 | 48.34707 | 11.80403 | 1479 ft | 8 kts | 173° |
| 2026-05-07 17:01 | 48.34649 | 11.80411 | 1479 ft | 9 kts | 174° |
| 2026-05-07 17:01 | 48.34612 | 11.80416 | 1477 ft | 0 kts | 174° |
| 2026-05-07 17:14 | 48.34610 | 11.80417 | 1479 ft | 2 kts | 174° |
| 2026-05-07 17:14 | 48.34569 | 11.80423 | 1476 ft | 10 kts | 174° |
| 2026-05-07 17:14 | 48.34494 | 11.80430 | 1472 ft | 9 kts | 190° |
| 2026-05-07 17:14 | 48.34475 | 11.80388 | 1477 ft | 0 kts | 264° |
| 2026-05-07 17:17 | 48.34472 | 11.80341 | 1481 ft | 18 kts | 264° |
| 2026-05-07 17:18 | 48.34433 | 11.79811 | 1474 ft | 86 kts | 263° |
| 2026-05-07 17:18 | 48.34338 | 11.78596 | 1479 ft | 145 kts | 264° |
| 2026-05-07 17:18 | 48.34232 | 11.76944 | 1822 ft | 163 kts | 266° |
| 2026-05-07 17:18 | 48.34121 | 11.75209 | 2577 ft | 171 kts | 268° |
| 2026-05-07 17:19 | 48.34028 | 11.73395 | 3316 ft | 176 kts | 267° |
| 2026-05-07 17:19 | 48.33929 | 11.71541 | 3941 ft | 180 kts | 266° |
| 2026-05-07 17:19 | 48.33799 | 11.69649 | 4520 ft | 189 kts | 263° |
| 2026-05-07 17:19 | 48.33625 | 11.67585 | 5048 ft | 207 kts | 262° |
| 2026-05-07 17:20 | 48.33436 | 11.65308 | 5494 ft | 230 kts | 262° |
| 2026-05-07 17:20 | 48.33244 | 11.62810 | 6077 ft | 250 kts | 262° |
| 2026-05-07 17:20 | 48.33043 | 11.60114 | 6666 ft | 267 kts | 262° |
| 2026-05-07 17:20 | 48.32841 | 11.57355 | 6946 ft | 269 kts | 262° |
| 2026-05-07 17:21 | 48.32634 | 11.54559 | 7033 ft | 269 kts | 262° |
| 2026-05-07 17:21 | 48.32429 | 11.51757 | 7042 ft | 270 kts | 264° |
| 2026-05-07 17:21 | 48.32612 | 11.48967 | 7035 ft | 272 kts | 287° |
| 2026-05-07 17:21 | 48.33621 | 11.46558 | 7038 ft | 277 kts | 315° |
| 2026-05-07 17:22 | 48.35277 | 11.45077 | 7038 ft | 282 kts | 342° |
| 2026-05-07 17:22 | 48.37220 | 11.44570 | 7037 ft | 285 kts | 353° |
| 2026-05-07 17:22 | 48.39203 | 11.44252 | 7232 ft | 292 kts | 350° |
| 2026-05-07 17:22 | 48.41240 | 11.43749 | 7871 ft | 298 kts | 348° |
| 2026-05-07 17:23 | 48.43248 | 11.43210 | 8919 ft | 291 kts | 348° |
| 2026-05-07 17:23 | 48.45260 | 11.42676 | 9513 ft | 295 kts | 348° |
| 2026-05-07 17:23 | 48.47290 | 11.42152 | 9807 ft | 297 kts | 348° |
| 2026-05-07 17:23 | 48.49325 | 11.41640 | 9968 ft | 297 kts | 348° |
| 2026-05-07 17:24 | 48.51371 | 11.41133 | 10022 ft | 297 kts | 348° |
| 2026-05-07 17:24 | 48.53419 | 11.40626 | 10021 ft | 297 kts | 348° |
| 2026-05-07 17:24 | 48.55470 | 11.40119 | 10161 ft | 300 kts | 348° |
| 2026-05-07 17:24 | 48.57545 | 11.39606 | 10814 ft | 301 kts | 348° |
| 2026-05-07 17:25 | 48.59582 | 11.39103 | 11765 ft | 302 kts | 348° |
| 2026-05-07 17:25 | 48.61682 | 11.38583 | 12483 ft | 312 kts | 348° |
| 2026-05-07 17:25 | 48.63903 | 11.38027 | 12759 ft | 336 kts | 348° |
| 2026-05-07 17:25 | 48.66290 | 11.37431 | 13002 ft | 358 kts | 348° |
| 2026-05-07 17:26 | 48.68774 | 11.36636 | 13507 ft | 368 kts | 340° |
| 2026-05-07 17:26 | 48.71154 | 11.35214 | 14252 ft | 368 kts | 330° |
| 2026-05-07 17:26 | 48.73349 | 11.33216 | 14983 ft | 369 kts | 323° |
| 2026-05-07 17:26 | 48.74765 | 11.31771 | 15456 ft | 371 kts | 323° |
| 2026-05-07 17:27 | 48.76918 | 11.29592 | 16164 ft | 374 kts | 323° |
| 2026-05-07 17:27 | 48.79098 | 11.27390 | 16865 ft | 378 kts | 323° |
| 2026-05-07 17:27 | 48.81296 | 11.25166 | 17557 ft | 382 kts | 323° |
| 2026-05-07 17:27 | 48.83548 | 11.22988 | 18247 ft | 387 kts | 328° |
| 2026-05-07 17:28 | 48.85989 | 11.21217 | 18870 ft | 392 kts | 335° |
| 2026-05-07 17:28 | 48.88600 | 11.19856 | 19440 ft | 397 kts | 339° |
| 2026-05-07 17:28 | 48.91238 | 11.18530 | 20022 ft | 401 kts | 339° |
| 2026-05-07 17:28 | 48.96842 | 11.15678 | 21239 ft | 408 kts | 339° |
| 2026-05-07 17:29 | 49.02270 | 11.12909 | 22361 ft | 416 kts | 339° |
| 2026-05-07 17:29 | 49.07812 | 11.10080 | 23450 ft | 423 kts | 339° |
| 2026-05-07 17:29 | 49.13436 | 11.07207 | 24398 ft | 429 kts | 339° |
| 2026-05-07 17:29 | 49.18565 | 11.04589 | 25195 ft | 435 kts | 339° |
| 2026-05-07 17:30 | 49.21442 | 11.03115 | 25633 ft | 438 kts | 339° |
| 2026-05-07 17:30 | 49.24346 | 11.01621 | 26057 ft | 441 kts | 338° |
| 2026-05-07 17:30 | 49.27262 | 11.00117 | 26453 ft | 444 kts | 338° |
| 2026-05-07 17:30 | 49.30200 | 10.98600 | 26864 ft | 446 kts | 338° |
| 2026-05-07 17:31 | 49.33162 | 10.97069 | 27262 ft | 449 kts | 338° |
| 2026-05-07 17:31 | 49.36081 | 10.95365 | 27621 ft | 449 kts | 331° |
| 2026-05-07 17:31 | 49.38742 | 10.92912 | 27988 ft | 447 kts | 320° |
| 2026-05-07 17:31 | 49.41060 | 10.89736 | 28337 ft | 445 kts | 309° |
| 2026-05-07 17:32 | 49.43031 | 10.86082 | 28682 ft | 445 kts | 306° |
| 2026-05-07 17:32 | 49.44986 | 10.82378 | 29021 ft | 448 kts | 306° |
| 2026-05-07 17:32 | 49.46956 | 10.78651 | 29348 ft | 450 kts | 306° |
| 2026-05-07 17:32 | 49.48936 | 10.74902 | 29657 ft | 452 kts | 306° |
| 2026-05-07 17:33 | 49.50897 | 10.71180 | 29972 ft | 454 kts | 306° |
| 2026-05-07 17:33 | 49.52890 | 10.67390 | 30255 ft | 457 kts | 306° |
| 2026-05-07 17:33 | 49.54892 | 10.63574 | 30544 ft | 458 kts | 306° |
| 2026-05-07 17:33 | 49.56894 | 10.59754 | 30827 ft | 460 kts | 306° |
| 2026-05-07 17:34 | 49.58908 | 10.55907 | 31093 ft | 462 kts | 306° |
| 2026-05-07 17:34 | 49.60924 | 10.52047 | 31302 ft | 464 kts | 306° |
| 2026-05-07 17:34 | 49.62946 | 10.48171 | 31547 ft | 465 kts | 306° |
| 2026-05-07 17:34 | 49.64969 | 10.44285 | 31825 ft | 464 kts | 305° |
| 2026-05-07 17:35 | 49.66839 | 10.40244 | 32110 ft | 462 kts | 301° |
| 2026-05-07 17:35 | 49.68640 | 10.36140 | 32383 ft | 462 kts | 301° |
| 2026-05-07 17:35 | 49.70455 | 10.32039 | 32661 ft | 461 kts | 301° |
| 2026-05-07 17:35 | 49.72242 | 10.28000 | 32926 ft | 461 kts | 301° |
| 2026-05-07 17:36 | 49.74046 | 10.23913 | 33189 ft | 461 kts | 301° |
| 2026-05-07 17:36 | 49.75876 | 10.19757 | 33458 ft | 461 kts | 301° |
| 2026-05-07 17:36 | 49.77677 | 10.15656 | 33695 ft | 460 kts | 301° |
| 2026-05-07 17:36 | 49.79452 | 10.11606 | 33951 ft | 460 kts | 301° |
| 2026-05-07 17:37 | 49.83037 | 10.03409 | 34046 ft | 459 kts | 301° |
| 2026-05-07 17:37 | 49.86614 | 9.95202 | 34046 ft | 459 kts | 301° |
| 2026-05-07 17:38 | 49.90185 | 9.86985 | 34049 ft | 459 kts | 301° |
| 2026-05-07 17:38 | 49.93749 | 9.78757 | 34047 ft | 459 kts | 301° |
| 2026-05-07 17:39 | 49.97310 | 9.70512 | 34048 ft | 459 kts | 301° |
| 2026-05-07 17:39 | 50.00860 | 9.62266 | 34050 ft | 459 kts | 301° |
| 2026-05-07 17:40 | 50.04393 | 9.54002 | 34050 ft | 458 kts | 299° |
| 2026-05-07 17:40 | 50.07187 | 9.45149 | 34052 ft | 455 kts | 288° |
| 2026-05-07 17:41 | 50.08948 | 9.35784 | 34050 ft | 454 kts | 283° |
| 2026-05-07 17:41 | 50.10632 | 9.26305 | 34049 ft | 454 kts | 283° |
| 2026-05-07 17:42 | 50.12307 | 9.16808 | 33953 ft | 454 kts | 283° |
| 2026-05-07 17:42 | 50.13965 | 9.07307 | 33964 ft | 454 kts | 283° |
| 2026-05-07 17:43 | 50.15615 | 8.97786 | 33979 ft | 454 kts | 283° |
| 2026-05-07 17:43 | 50.17256 | 8.88271 | 33999 ft | 454 kts | 283° |
| 2026-05-07 17:44 | 50.18888 | 8.78752 | 34010 ft | 454 kts | 283° |
| 2026-05-07 17:44 | 50.20505 | 8.69272 | 34018 ft | 454 kts | 283° |
| 2026-05-07 17:45 | 50.22111 | 8.59805 | 34018 ft | 454 kts | 283° |
| 2026-05-07 17:45 | 50.23720 | 8.50266 | 34015 ft | 454 kts | 283° |
| 2026-05-07 17:46 | 50.25322 | 8.40722 | 34014 ft | 453 kts | 283° |
| 2026-05-07 17:46 | 50.26912 | 8.31192 | 34018 ft | 453 kts | 284° |
| 2026-05-07 17:47 | 50.28492 | 8.21664 | 34013 ft | 453 kts | 283° |
| 2026-05-07 17:47 | 50.30069 | 8.12105 | 34000 ft | 453 kts | 283° |
| 2026-05-07 17:48 | 50.31623 | 8.02637 | 33994 ft | 452 kts | 283° |
| 2026-05-07 17:48 | 50.33182 | 7.93081 | 33991 ft | 453 kts | 283° |
| 2026-05-07 17:49 | 50.34732 | 7.83526 | 33996 ft | 453 kts | 283° |
| 2026-05-07 17:49 | 50.36274 | 7.73967 | 33996 ft | 453 kts | 283° |
| 2026-05-07 17:50 | 50.37810 | 7.64386 | 33995 ft | 452 kts | 283° |
| 2026-05-07 17:50 | 50.39325 | 7.54884 | 34000 ft | 453 kts | 283° |
| 2026-05-07 17:51 | 50.40844 | 7.45303 | 34001 ft | 452 kts | 283° |
| 2026-05-07 17:51 | 50.41980 | 7.38102 | 34007 ft | 452 kts | 283° |
| 2026-05-07 17:52 | 50.43483 | 7.28524 | 34013 ft | 452 kts | 283° |
| 2026-05-07 17:52 | 50.44979 | 7.18940 | 34013 ft | 452 kts | 283° |
| 2026-05-07 17:53 | 50.46464 | 7.09362 | 34013 ft | 452 kts | 283° |
| 2026-05-07 17:53 | 50.47942 | 6.99779 | 34018 ft | 451 kts | 283° |
| 2026-05-07 17:54 | 50.49413 | 6.90188 | 34018 ft | 451 kts | 283° |
| 2026-05-07 17:54 | 50.50956 | 6.80706 | 34018 ft | 451 kts | 288° |
| 2026-05-07 17:55 | 50.53230 | 6.71435 | 34024 ft | 451 kts | 290° |
| 2026-05-07 17:55 | 50.55511 | 6.62245 | 34027 ft | 451 kts | 290° |
| 2026-05-07 17:56 | 50.57777 | 6.53035 | 34031 ft | 451 kts | 290° |
| 2026-05-07 17:56 | 50.60016 | 6.43880 | 34032 ft | 451 kts | 290° |
| 2026-05-07 17:57 | 50.61877 | 6.36232 | 34032 ft | 451 kts | 290° |
| 2026-05-07 17:57 | 50.64498 | 6.25421 | 34032 ft | 451 kts | 289° |
| 2026-05-07 17:58 | 50.66724 | 6.16194 | 34042 ft | 450 kts | 289° |
| 2026-05-07 17:58 | 50.68933 | 6.07000 | 34045 ft | 450 kts | 289° |
| 2026-05-07 17:59 | 50.71143 | 5.97764 | 34040 ft | 450 kts | 289° |
| 2026-05-07 17:59 | 50.73348 | 5.88508 | 34043 ft | 450 kts | 289° |
| 2026-05-07 18:00 | 50.75542 | 5.79261 | 34047 ft | 450 kts | 289° |
| 2026-05-07 18:00 | 50.77732 | 5.69988 | 34066 ft | 450 kts | 289° |
| 2026-05-07 18:01 | 50.79912 | 5.60719 | 34070 ft | 449 kts | 289° |
| 2026-05-07 18:01 | 50.82084 | 5.51445 | 34066 ft | 449 kts | 289° |
| 2026-05-07 18:02 | 50.85308 | 5.37601 | 34069 ft | 449 kts | 289° |
| 2026-05-07 18:03 | 50.87471 | 5.28266 | 34066 ft | 448 kts | 289° |
| 2026-05-07 18:03 | 50.89599 | 5.19043 | 34069 ft | 449 kts | 288° |
| 2026-05-07 18:04 | 50.91731 | 5.09760 | 34070 ft | 448 kts | 288° |
| 2026-05-07 18:04 | 50.93858 | 5.00457 | 34070 ft | 448 kts | 288° |
| 2026-05-07 18:05 | 50.95973 | 4.91165 | 34068 ft | 449 kts | 288° |
| 2026-05-07 18:05 | 50.98088 | 4.81835 | 34070 ft | 448 kts | 288° |
| 2026-05-07 18:06 | 51.00191 | 4.72512 | 34073 ft | 448 kts | 288° |
| 2026-05-07 18:06 | 51.02276 | 4.63233 | 34072 ft | 448 kts | 288° |
| 2026-05-07 18:07 | 51.04364 | 4.53898 | 34075 ft | 448 kts | 288° |
| 2026-05-07 18:07 | 51.06442 | 4.44564 | 34074 ft | 448 kts | 288° |
| 2026-05-07 18:08 | 51.08515 | 4.35215 | 34074 ft | 448 kts | 288° |
| 2026-05-07 18:08 | 51.10580 | 4.25855 | 34069 ft | 448 kts | 288° |
| 2026-05-07 18:09 | 51.12635 | 4.16501 | 34070 ft | 448 kts | 288° |
| 2026-05-07 18:09 | 51.14682 | 4.07141 | 34064 ft | 447 kts | 288° |
| 2026-05-07 18:10 | 51.16707 | 3.97839 | 34067 ft | 447 kts | 288° |
| 2026-05-07 18:10 | 51.18731 | 3.88501 | 33585 ft | 443 kts | 287° |
| 2026-05-07 18:10 | 51.19734 | 3.83854 | 32835 ft | 443 kts | 287° |
| 2026-05-07 18:11 | 51.20736 | 3.79206 | 31954 ft | 444 kts | 287° |
| 2026-05-07 18:11 | 51.21413 | 3.76059 | 31326 ft | 445 kts | 287° |
| 2026-05-07 18:11 | 51.22736 | 3.69907 | 30503 ft | 437 kts | 287° |
| 2026-05-07 18:11 | 51.23846 | 3.65451 | 30172 ft | 430 kts | 294° |
| 2026-05-07 18:12 | 51.25302 | 3.61233 | 30067 ft | 439 kts | 298° |
| 2026-05-07 18:12 | 51.27889 | 3.54281 | 30063 ft | 430 kts | 298° |
| 2026-05-07 18:12 | 51.29382 | 3.50258 | 30067 ft | 411 kts | 298° |
| 2026-05-07 18:13 | 51.30806 | 3.46408 | 30069 ft | 396 kts | 298° |
| 2026-05-07 18:13 | 51.33637 | 3.38720 | 30069 ft | 405 kts | 298° |
| 2026-05-07 18:14 | 51.35979 | 3.30608 | 30073 ft | 401 kts | 289° |
| 2026-05-07 18:14 | 51.36954 | 3.26468 | 30074 ft | 390 kts | 289° |
| 2026-05-07 18:14 | 51.37901 | 3.22498 | 30027 ft | 374 kts | 289° |
| 2026-05-07 18:14 | 51.38818 | 3.18650 | 29247 ft | 369 kts | 289° |
| 2026-05-07 18:15 | 51.39736 | 3.14774 | 28093 ft | 374 kts | 289° |
| 2026-05-07 18:15 | 51.40644 | 3.10929 | 27269 ft | 372 kts | 289° |
| 2026-05-07 18:15 | 51.41552 | 3.07078 | 26532 ft | 367 kts | 289° |
| 2026-05-07 18:15 | 51.42449 | 3.03265 | 25792 ft | 364 kts | 289° |
| 2026-05-07 18:16 | 51.44681 | 2.93741 | 25094 ft | 384 kts | 289° |
| 2026-05-07 18:16 | 51.46889 | 2.84287 | 25068 ft | 391 kts | 289° |
| 2026-05-07 18:16 | 51.48783 | 2.76152 | 25071 ft | 388 kts | 289° |
| 2026-05-07 18:16 | 51.51507 | 2.64386 | 25072 ft | 388 kts | 289° |
| 2026-05-07 18:17 | 51.55450 | 2.47232 | 25070 ft | 388 kts | 288° |
| 2026-05-07 18:17 | 51.59173 | 2.30920 | 25070 ft | 388 kts | 288° |
| 2026-05-07 18:17 | 51.62872 | 2.14590 | 25068 ft | 388 kts | 288° |
| 2026-05-07 18:17 | 51.66551 | 1.98215 | 25070 ft | 388 kts | 288° |
| 2026-05-07 18:18 | 51.69323 | 1.85789 | 25073 ft | 388 kts | 288° |
| 2026-05-07 18:18 | 51.71164 | 1.77497 | 25073 ft | 388 kts | 288° |
| 2026-05-07 18:18 | 51.74032 | 1.63894 | 24713 ft | 383 kts | 281° |
| 2026-05-07 18:18 | 51.73835 | 1.47042 | 22477 ft | 372 kts | 263° |
| 2026-05-07 18:19 | 51.72822 | 1.31220 | 21212 ft | 327 kts | 263° |
| 2026-05-07 18:19 | 51.71875 | 1.16937 | 19289 ft | 320 kts | 263° |
| 2026-05-07 18:19 | 51.71613 | 1.13030 | 19027 ft | 321 kts | 263° |
| 2026-05-07 18:19 | 51.71371 | 1.09439 | 18792 ft | 323 kts | 263° |
| 2026-05-07 18:20 | 51.71128 | 1.05850 | 18563 ft | 320 kts | 263° |
| 2026-05-07 18:20 | 51.70888 | 1.02311 | 18324 ft | 314 kts | 263° |
| 2026-05-07 18:20 | 51.70648 | 0.98813 | 18088 ft | 315 kts | 263° |
| 2026-05-07 18:20 | 51.70406 | 0.95291 | 17810 ft | 315 kts | 263° |
| 2026-05-07 18:21 | 51.70165 | 0.91798 | 17409 ft | 309 kts | 262° |
| 2026-05-07 18:21 | 51.69933 | 0.88437 | 16818 ft | 305 kts | 262° |
| 2026-05-07 18:21 | 51.69695 | 0.85026 | 16098 ft | 307 kts | 262° |
| 2026-05-07 18:21 | 51.69458 | 0.81625 | 15474 ft | 304 kts | 262° |
| 2026-05-07 18:22 | 51.69221 | 0.78241 | 14846 ft | 303 kts | 262° |
| 2026-05-07 18:22 | 51.69060 | 0.75960 | 14313 ft | 306 kts | 262° |
| 2026-05-07 18:22 | 51.68736 | 0.71393 | 13122 ft | 314 kts | 262° |
| 2026-05-07 18:22 | 51.68485 | 0.67874 | 12179 ft | 318 kts | 262° |
| 2026-05-07 18:23 | 51.68227 | 0.64285 | 11205 ft | 324 kts | 262° |
| 2026-05-07 18:23 | 51.67967 | 0.60655 | 10250 ft | 328 kts | 262° |
| 2026-05-07 18:23 | 51.67701 | 0.56976 | 9206 ft | 332 kts | 262° |
| 2026-05-07 18:23 | 51.67432 | 0.53266 | 8158 ft | 334 kts | 262° |
| 2026-05-07 18:24 | 51.67160 | 0.49539 | 7148 ft | 336 kts | 263° |
| 2026-05-07 18:24 | 51.66890 | 0.45843 | 6491 ft | 327 kts | 263° |
| 2026-05-07 18:24 | 51.66631 | 0.42313 | 6176 ft | 307 kts | 263° |
| 2026-05-07 18:24 | 51.66388 | 0.39016 | 6036 ft | 284 kts | 263° |
| 2026-05-07 18:25 | 51.66164 | 0.35983 | 6019 ft | 264 kts | 263° |
| 2026-05-07 18:25 | 51.65951 | 0.33104 | 6021 ft | 252 kts | 263° |
| 2026-05-07 18:25 | 51.65749 | 0.30397 | 6015 ft | 236 kts | 263° |
| 2026-05-07 18:25 | 51.65556 | 0.27814 | 6019 ft | 234 kts | 263° |
| 2026-05-07 18:26 | 51.65362 | 0.25225 | 6025 ft | 234 kts | 263° |
| 2026-05-07 18:26 | 51.65166 | 0.22614 | 6017 ft | 233 kts | 263° |
| 2026-05-07 18:26 | 51.64970 | 0.20019 | 6020 ft | 234 kts | 263° |
| 2026-05-07 18:26 | 51.64771 | 0.17385 | 6054 ft | 247 kts | 263° |
| 2026-05-07 18:27 | 51.64626 | 0.14498 | 6592 ft | 267 kts | 266° |
| 2026-05-07 18:27 | 51.64504 | 0.11502 | 6896 ft | 269 kts | 266° |
| 2026-05-07 18:27 | 51.64389 | 0.08491 | 7001 ft | 270 kts | 266° |
| 2026-05-07 18:27 | 51.64277 | 0.05519 | 7024 ft | 269 kts | 266° |
| 2026-05-07 18:28 | 51.64164 | 0.02514 | 7025 ft | 269 kts | 266° |
| 2026-05-07 18:28 | 51.64050 | -0.00489 | 7019 ft | 269 kts | 266° |
| 2026-05-07 18:28 | 51.63936 | -0.03495 | 7021 ft | 269 kts | 266° |
| 2026-05-07 18:28 | 51.63821 | -0.06504 | 7022 ft | 270 kts | 266° |
| 2026-05-07 18:29 | 51.63707 | -0.09519 | 7021 ft | 270 kts | 266° |
| 2026-05-07 18:29 | 51.63592 | -0.12531 | 7021 ft | 270 kts | 266° |
| 2026-05-07 18:29 | 51.63476 | -0.15546 | 7025 ft | 270 kts | 266° |
| 2026-05-07 18:29 | 51.63358 | -0.18570 | 7027 ft | 271 kts | 266° |
| 2026-05-07 18:30 | 51.63239 | -0.21593 | 7026 ft | 271 kts | 266° |
| 2026-05-07 18:30 | 51.63121 | -0.24617 | 7027 ft | 271 kts | 266° |
| 2026-05-07 18:30 | 51.63001 | -0.27656 | 7026 ft | 272 kts | 266° |
| 2026-05-07 18:30 | 51.62879 | -0.30693 | 7027 ft | 272 kts | 266° |
| 2026-05-07 18:31 | 51.62758 | -0.33725 | 7026 ft | 272 kts | 266° |
| 2026-05-07 18:31 | 51.62636 | -0.36766 | 6997 ft | 272 kts | 266° |
| 2026-05-07 18:31 | 51.62515 | -0.39774 | 7002 ft | 273 kts | 266° |
| 2026-05-07 18:31 | 51.62392 | -0.42820 | 6998 ft | 273 kts | 266° |
| 2026-05-07 18:32 | 51.62267 | -0.45872 | 6997 ft | 273 kts | 266° |
| 2026-05-07 18:32 | 51.62141 | -0.48924 | 7001 ft | 273 kts | 266° |
| 2026-05-07 18:32 | 51.62015 | -0.51977 | 6997 ft | 273 kts | 266° |
| 2026-05-07 18:32 | 51.61889 | -0.55033 | 6997 ft | 273 kts | 265° |
| 2026-05-07 18:33 | 51.61763 | -0.58081 | 6950 ft | 270 kts | 265° |
| 2026-05-07 18:33 | 51.61639 | -0.61050 | 6567 ft | 263 kts | 266° |
| 2026-05-07 18:33 | 51.61489 | -0.64010 | 5863 ft | 267 kts | 260° |
| 2026-05-07 18:33 | 51.60979 | -0.66866 | 5184 ft | 270 kts | 251° |
| 2026-05-07 18:34 | 51.60377 | -0.69689 | 4762 ft | 263 kts | 251° |
| 2026-05-07 18:34 | 51.59794 | -0.72428 | 4322 ft | 257 kts | 251° |
| 2026-05-07 18:34 | 51.59231 | -0.75093 | 4061 ft | 245 kts | 251° |
| 2026-05-07 18:34 | 51.58707 | -0.77591 | 3974 ft | 225 kts | 251° |
| 2026-05-07 18:35 | 51.58215 | -0.79936 | 3977 ft | 221 kts | 251° |
| 2026-05-07 18:35 | 51.57738 | -0.82216 | 3973 ft | 210 kts | 251° |
| 2026-05-07 18:35 | 51.57269 | -0.84461 | 3976 ft | 213 kts | 250° |
| 2026-05-07 18:35 | 51.56664 | -0.86531 | 3966 ft | 197 kts | 226° |
| 2026-05-07 18:36 | 51.55549 | -0.87584 | 3982 ft | 188 kts | 189° |
| 2026-05-07 18:36 | 51.54239 | -0.87712 | 3974 ft | 188 kts | 180° |
| 2026-05-07 18:36 | 51.52932 | -0.87766 | 3975 ft | 188 kts | 180° |
| 2026-05-07 18:36 | 51.51621 | -0.87816 | 3975 ft | 188 kts | 180° |
| 2026-05-07 18:37 | 51.50315 | -0.87866 | 3976 ft | 188 kts | 180° |
| 2026-05-07 18:37 | 51.49023 | -0.87686 | 3972 ft | 187 kts | 159° |
| 2026-05-07 18:37 | 51.48056 | -0.86421 | 3979 ft | 177 kts | 123° |
| 2026-05-07 18:37 | 51.47417 | -0.84742 | 3993 ft | 177 kts | 120° |
| 2026-05-07 18:38 | 51.47178 | -0.82857 | 4012 ft | 177 kts | 83° |
| 2026-05-07 18:38 | 51.47380 | -0.80906 | 3989 ft | 176 kts | 81° |
| 2026-05-07 18:38 | 51.47506 | -0.79009 | 3848 ft | 166 kts | 86° |
| 2026-05-07 18:38 | 51.47545 | -0.77181 | 3636 ft | 166 kts | 89° |
| 2026-05-07 18:39 | 51.47556 | -0.75338 | 3424 ft | 165 kts | 90° |
| 2026-05-07 18:39 | 51.47569 | -0.73497 | 3205 ft | 165 kts | 90° |
| 2026-05-07 18:39 | 51.47581 | -0.71656 | 2981 ft | 165 kts | 90° |
| 2026-05-07 18:39 | 51.47593 | -0.69853 | 2772 ft | 156 kts | 90° |
| 2026-05-07 18:40 | 51.47604 | -0.68164 | 2555 ft | 146 kts | 91° |
| 2026-05-07 18:40 | 51.47614 | -0.66608 | 2356 ft | 134 kts | 91° |
| 2026-05-07 18:40 | 51.47623 | -0.65103 | 2174 ft | 136 kts | 91° |
| 2026-05-07 18:40 | 51.47632 | -0.63554 | 2002 ft | 150 kts | 91° |
| 2026-05-07 18:41 | 51.47644 | -0.61780 | 1781 ft | 162 kts | 91° |
| 2026-05-07 18:41 | 51.47657 | -0.59962 | 1555 ft | 164 kts | 91° |
| 2026-05-07 18:41 | 51.47669 | -0.58140 | 1334 ft | 163 kts | 91° |
| 2026-05-07 18:41 | 51.47681 | -0.56388 | 1099 ft | 149 kts | 91° |
| 2026-05-07 18:42 | 51.47697 | -0.54801 | 847 ft | 137 kts | 90° |
| 2026-05-07 18:42 | 51.47728 | -0.53341 | 635 ft | 128 kts | 91° |
| 2026-05-07 18:42 | 51.47735 | -0.51922 | 467 ft | 128 kts | 92° |
| 2026-05-07 18:42 | 51.47734 | -0.50499 | 284 ft | 126 kts | 91° |
| 2026-05-07 18:43 | 51.47749 | -0.49095 | 166 ft | 125 kts | 92° |
| 2026-05-07 18:43 | 51.47754 | -0.47746 | 87 ft | 114 kts | 93° |
| 2026-05-07 18:43 | 51.47747 | -0.46869 | 91 ft | 56 kts | 90° |
| 2026-05-07 18:43 | 51.47758 | -0.46327 | 92 ft | 28 kts | 90° |
| 2026-05-07 18:44 | 51.47731 | -0.46183 | 89 ft | 15 kts | 134° |
| 2026-05-07 18:44 | 51.47657 | -0.46094 | 90 ft | 0 kts | 146° |
| 2026-05-07 18:48 | 51.47655 | -0.46092 | 90 ft | 2 kts | 146° |
| 2026-05-07 18:49 | 51.47613 | -0.46047 | 87 ft | 10 kts | 139° |
| 2026-05-07 18:49 | 51.47597 | -0.45912 | 87 ft | 16 kts | 89° |
| 2026-05-07 18:49 | 51.47597 | -0.45727 | 85 ft | 18 kts | 89° |
| 2026-05-07 18:49 | 51.47597 | -0.45632 | 85 ft | 1 kts | 90° |
| 2026-05-07 18:50 | 51.47597 | -0.45589 | 85 ft | 6 kts | 91° |
| 2026-05-07 18:50 | 51.47597 | -0.45485 | 85 ft | 12 kts | 90° |
| 2026-05-07 18:50 | 51.47596 | -0.45349 | 87 ft | 12 kts | 91° |
| 2026-05-07 18:50 | 51.47594 | -0.45215 | 92 ft | 11 kts | 103° |
| 2026-05-07 18:51 | 51.47533 | -0.45163 | 91 ft | 11 kts | 151° |
| 2026-05-07 18:51 | 51.47506 | -0.45055 | 92 ft | 12 kts | 86° |
| 2026-05-07 18:51 | 51.47505 | -0.44907 | 88 ft | 15 kts | 91° |
| 2026-05-07 18:51 | 51.47505 | -0.44854 | 89 ft | 2 kts | 90° |
| 2026-05-07 18:52 | 51.47508 | -0.44791 | 88 ft | 10 kts | 85° |
| 2026-05-07 18:52 | 51.47515 | -0.44649 | 89 ft | 12 kts | 87° |
| 2026-05-07 18:52 | 51.47508 | -0.44497 | 90 ft | 18 kts | 96° |
| 2026-05-07 18:52 | 51.47505 | -0.44255 | 88 ft | 23 kts | 90° |
| 2026-05-07 18:53 | 51.47498 | -0.44096 | 88 ft | 12 kts | 114° |
| 2026-05-07 18:53 | 51.47462 | -0.44061 | 91 ft | 2 kts | 173° |
| 2026-05-07 18:53 | 51.47419 | -0.44055 | 88 ft | 11 kts | 176° |
| 2026-05-07 18:53 | 51.47351 | -0.44096 | 89 ft | 14 kts | 232° |
| 2026-05-07 18:54 | 51.47341 | -0.44199 | 89 ft | 9 kts | 270° |
| 2026-05-07 18:54 | 51.47341 | -0.44228 | 88 ft | 0 kts | 270° |